Česky Dansk Deutsch English Español Suomi Français Magyar Italiano Nederlands norsk Polski Português svenska Türkçe

 

Het Weer

Kalmar (Zweden)

14:20, 21 augustus 2016 (GMT)

NWNNE
WE
SWSSE
Home            
Kalmar Ronneby Vaxjo Hultsfred Swedish Air Force Base Hagshult Visby Flygplats Kristianstad / Everod Jonkoping Flygplats Linkoping / Saab Linkoping / Malmen Ljungbyhed, Ljungbyhed, SWE-AFB Ljungbyhed Norrkoping Roenne Halmstad Swedish Air Force Base Angelholm Malmo / Sturup Stockholm/Skavsta Skovde Flygplats Slupsk Koebenhavn / Kastrup Goteborg / Landvetter Vaerloese

Om een weerknop op uw website of weblog te plaatsen, copieer onderstaande code en plak die in uw pagina. In het eerste vakje staat HTML-code, in het tweede vakje UBB-code.


Add to Google

Details

Wind speed:1 bf, 2 kn, 1.0 m/s, 2.3 miles/h, 3.7 km/h
Wind direction:Variable
Visibility:Greater than 10000 m, 10 km, 32800 ft, 6.2 miles
Clouds:CAVOC
Temperature:19°C, 66°F
Dew-point:16°C, 61°F
Atmospheric pressure:1014 hPa, 760.6 mmHg, 29.94 inHg, 1.001 atm
Relative humidity:82.7 %
METAR:ESMQ 211420Z VRB02KT CAVOK 19/16 Q1014

Snelkoppelingen

Actuele weersinformatie van de hele wereld. Voeg locaties toe met het plus (+) symbool. Deze snelkoppelingen kunnen worden toegevoegd aan Google.

Lid van de Technetium groep

website free tracking
StatCounter NetStat W3C Validator

25-11-2020 08:35:24
astro.technetium.be money.technetium.be phote.technetium.be tafeltennistafel.technetium.be www.ligfiets.net